createdAt,value
2018-06-13T00:01:46.895Z,3.30
2018-06-13T00:04:15.461Z,3.60
2018-06-13T00:06:43.969Z,3.47
2018-06-13T00:09:12.428Z,3.37
2018-06-13T00:11:40.904Z,3.73
2018-06-13T00:14:09.533Z,4.77
2018-06-13T00:16:38.020Z,5.40
2018-06-13T00:19:06.477Z,4.83
2018-06-13T00:21:34.980Z,4.78
2018-06-13T00:24:03.449Z,5.42
2018-06-13T00:26:31.895Z,4.73
2018-06-13T00:29:00.378Z,4.53
2018-06-13T00:31:28.839Z,5.12
2018-06-13T00:33:57.311Z,4.50
2018-06-13T00:36:25.801Z,3.60
2018-06-13T00:38:54.269Z,3.70
2018-06-13T00:41:22.731Z,5.70
2018-06-13T00:43:51.210Z,5.67
2018-06-13T00:46:19.680Z,5.85
2018-06-13T00:48:48.140Z,4.25
2018-06-13T00:51:16.663Z,4.93
2018-06-13T00:53:45.125Z,4.87
2018-06-13T00:56:24.792Z,5.37
2018-06-13T00:58:53.488Z,4.40
2018-06-13T01:01:21.955Z,3.83
2018-06-13T01:03:50.429Z,4.00
2018-06-13T01:06:18.889Z,4.33
2018-06-13T01:08:47.357Z,5.13
2018-06-13T01:11:15.831Z,5.20
2018-06-13T01:13:43.966Z,4.73
2018-06-13T01:16:12.907Z,4.80
2018-06-13T01:18:41.418Z,6.83
2018-06-13T01:21:09.875Z,6.00
2018-06-13T01:23:38.394Z,6.40
2018-06-13T01:26:06.900Z,6.10
2018-06-13T01:28:35.341Z,4.07
2018-06-13T01:31:03.778Z,4.90
2018-06-13T01:33:32.241Z,5.97
2018-06-13T01:36:00.759Z,9.60
2018-06-13T01:38:29.343Z,10.63
2018-06-13T01:40:57.870Z,7.27
2018-06-13T01:43:26.314Z,8.17
2018-06-13T01:45:54.757Z,10.13
2018-06-13T01:48:23.233Z,9.47
2018-06-13T01:50:57.069Z,9.20
2018-06-13T01:53:25.623Z,8.27
2018-06-13T01:55:54.145Z,8.50
2018-06-13T01:58:22.595Z,11.10
2018-06-13T02:00:51.085Z,11.50
2018-06-13T02:03:19.542Z,12.17
2018-06-13T02:05:47.981Z,12.77
2018-06-13T02:08:16.461Z,13.40
2018-06-13T02:10:44.993Z,13.13
2018-06-13T02:13:13.424Z,11.87
2018-06-13T02:15:41.908Z,11.03
2018-06-13T02:18:10.845Z,12.00
2018-06-13T02:20:39.305Z,11.40
2018-06-13T02:23:07.791Z,10.93
2018-06-13T02:25:36.248Z,8.43
2018-06-13T02:28:04.722Z,8.10
2018-06-13T02:30:33.213Z,8.48
2018-06-13T02:33:01.693Z,7.40
2018-06-13T02:35:30.151Z,7.65
2018-06-13T02:37:58.674Z,7.65
2018-06-13T02:40:27.131Z,8.63
2018-06-13T02:42:55.738Z,7.90
2018-06-13T02:45:24.240Z,11.65
2018-06-13T02:47:52.721Z,11.97
2018-06-13T02:50:21.185Z,17.57
2018-06-13T02:52:49.853Z,21.50
2018-06-13T02:55:18.302Z,21.73
2018-06-13T02:57:46.783Z,18.05
2018-06-13T03:00:15.284Z,24.25
2018-06-13T03:02:43.730Z,21.90
2018-06-13T03:05:13.180Z,24.50
2018-06-13T03:07:41.659Z,21.85
2018-06-13T03:10:10.107Z,21.10
2018-06-13T03:12:38.600Z,22.00
2018-06-13T03:15:07.202Z,23.92
2018-06-13T03:17:35.653Z,23.90
2018-06-13T03:20:04.142Z,25.85
2018-06-13T03:22:32.626Z,24.50
2018-06-13T03:25:01.063Z,24.87
2018-06-13T03:27:29.516Z,25.00
2018-06-13T03:29:58.025Z,27.50
2018-06-13T03:32:26.476Z,26.00
2018-06-13T03:34:54.924Z,29.90
2018-06-13T03:37:23.399Z,25.00
2018-06-13T03:39:51.872Z,24.70
2018-06-13T03:42:20.338Z,22.40
2018-06-13T03:44:48.795Z,22.25
2018-06-13T03:47:17.265Z,21.25
2018-06-13T03:49:45.747Z,20.27
2018-06-13T03:52:14.225Z,19.75
2018-06-13T03:54:42.668Z,20.80
2018-06-13T03:57:11.133Z,19.05
2018-06-13T03:59:39.589Z,18.95
2018-06-13T04:02:08.033Z,18.25
2018-06-13T04:04:36.563Z,17.00
2018-06-13T04:07:05.075Z,16.07
2018-06-13T04:09:33.522Z,16.52
2018-06-13T04:12:02.101Z,13.90
2018-06-13T04:14:30.687Z,12.55
2018-06-13T04:16:59.170Z,14.85
2018-06-13T04:19:27.632Z,13.45
2018-06-13T04:21:56.113Z,12.50
2018-06-13T04:24:24.561Z,11.60
2018-06-13T04:26:53.012Z,12.05
2018-06-13T04:29:21.516Z,11.57
2018-06-13T04:31:49.961Z,10.70
2018-06-13T04:34:18.397Z,11.48
2018-06-13T04:36:46.894Z,10.30
2018-06-13T04:39:15.326Z,9.73
2018-06-13T04:41:43.762Z,9.13
2018-06-13T04:44:12.257Z,9.90
2018-06-13T04:46:40.692Z,9.33
2018-06-13T04:49:09.157Z,10.23
2018-06-13T04:51:37.625Z,9.43
2018-06-13T04:54:06.094Z,8.63
2018-06-13T04:56:34.539Z,8.87
2018-06-13T04:59:02.996Z,9.03
2018-06-13T05:01:31.456Z,9.10
2018-06-13T05:03:59.930Z,9.87
2018-06-13T05:06:28.533Z,9.47
2018-06-13T05:08:56.991Z,9.23
2018-06-13T05:11:25.448Z,9.27
2018-06-13T05:13:53.971Z,9.80
2018-06-13T05:16:22.420Z,10.83
2018-06-13T05:18:50.878Z,9.60
2018-06-13T05:21:19.446Z,9.33
2018-06-13T05:23:47.889Z,12.50
2018-06-13T05:26:16.350Z,13.60
2018-06-13T05:28:44.869Z,15.27
2018-06-13T05:31:13.298Z,16.10
2018-06-13T05:33:41.769Z,15.90
2018-06-13T05:36:10.256Z,16.37
2018-06-13T05:38:38.718Z,16.23
2018-06-13T05:41:07.206Z,15.40
2018-06-13T05:43:35.697Z,15.90
2018-06-13T05:46:04.177Z,15.23
2018-06-13T05:48:32.646Z,17.90
2018-06-13T05:51:01.129Z,15.70
2018-06-13T05:53:30.057Z,14.43
2018-06-13T05:55:58.579Z,15.00
2018-06-13T05:58:27.056Z,16.10
2018-06-13T06:00:55.527Z,14.80
2018-06-13T06:03:24.000Z,15.63
2018-06-13T06:05:52.575Z,11.07
2018-06-13T06:08:20.777Z,12.50
2018-06-13T06:10:49.320Z,9.40
2018-06-13T06:13:17.838Z,11.07
2018-06-13T06:15:46.307Z,8.20
2018-06-13T06:18:14.885Z,9.17
2018-06-13T06:20:43.365Z,7.10
2018-06-13T06:23:11.872Z,6.80
2018-06-13T06:25:40.403Z,7.37
2018-06-13T06:28:08.913Z,5.80
2018-06-13T06:30:37.358Z,6.63
2018-06-13T06:33:05.914Z,7.50
2018-06-13T06:35:34.400Z,6.93
2018-06-13T06:38:02.842Z,6.93
2018-06-13T06:40:31.328Z,5.40
2018-06-13T06:42:59.811Z,5.93
2018-06-13T06:45:28.246Z,6.87
2018-06-13T06:47:56.755Z,6.00
2018-06-13T06:50:25.222Z,6.50
2018-06-13T06:52:53.664Z,5.63
2018-06-13T06:55:22.203Z,6.77
2018-06-13T06:57:50.682Z,6.00
2018-06-13T07:00:19.128Z,5.10
2018-06-13T07:02:47.646Z,6.40
2018-06-13T07:05:16.090Z,6.60
2018-06-13T07:07:44.542Z,8.30
2018-06-13T07:10:13.001Z,7.07
2018-06-13T07:12:41.489Z,8.60
2018-06-13T07:15:10.061Z,7.50
2018-06-13T07:17:38.533Z,6.13
2018-06-13T07:20:07.015Z,7.63
2018-06-13T07:22:35.468Z,7.20
2018-06-13T07:25:04.042Z,12.23
2018-06-13T07:27:32.560Z,12.27
2018-06-13T07:30:01.031Z,13.33
2018-06-13T07:32:29.509Z,10.57
2018-06-13T07:34:58.168Z,10.50
2018-06-13T07:37:26.631Z,9.87
2018-06-13T07:39:55.142Z,10.10
2018-06-13T07:42:23.626Z,9.17
2018-06-13T07:44:52.106Z,7.63
2018-06-13T07:47:21.100Z,7.20
2018-06-13T07:49:49.609Z,5.47
2018-06-13T07:52:18.090Z,4.60
2018-06-13T07:54:46.544Z,6.70
2018-06-13T07:57:15.026Z,4.97
2018-06-13T07:59:43.464Z,4.60
2018-06-13T08:02:11.938Z,4.00
2018-06-13T08:04:40.401Z,4.63
2018-06-13T08:07:08.844Z,4.07
2018-06-13T08:09:37.314Z,3.73
2018-06-13T08:12:05.814Z,3.57
2018-06-13T08:14:34.297Z,6.00
2018-06-13T08:17:02.730Z,3.43
2018-06-13T08:19:31.210Z,4.13
2018-06-13T08:21:59.668Z,3.57
2018-06-13T08:24:28.319Z,4.17
2018-06-13T08:26:56.824Z,3.20
2018-06-13T08:29:25.296Z,2.90
2018-06-13T08:31:53.815Z,2.97
2018-06-13T08:34:21.961Z,3.00
2018-06-13T08:36:50.973Z,3.27
2018-06-13T08:39:19.446Z,2.57
2018-06-13T08:41:47.914Z,2.33
2018-06-13T08:44:16.358Z,2.30
2018-06-13T08:46:44.845Z,2.20
2018-06-13T08:49:13.306Z,2.50
2018-06-13T08:51:41.536Z,2.10
2018-06-13T08:54:10.080Z,2.70
2018-06-13T08:56:38.502Z,2.90
2018-06-13T08:59:07.151Z,2.97
2018-06-13T09:01:35.609Z,2.27
2018-06-13T09:04:04.087Z,3.47
2018-06-13T09:06:32.535Z,3.93
2018-06-13T09:09:00.994Z,4.00
2018-06-13T09:11:29.456Z,3.23
2018-06-13T09:13:57.972Z,3.50
2018-06-13T09:16:26.771Z,3.97
2018-06-13T09:18:55.285Z,4.07
2018-06-13T09:21:23.741Z,4.30
2018-06-13T09:23:52.260Z,4.73
2018-06-13T09:26:20.754Z,4.10
2018-06-13T09:28:49.237Z,4.43
2018-06-13T09:31:17.751Z,3.83
2018-06-13T09:33:46.269Z,4.30
2018-06-13T09:36:14.732Z,3.53
2018-06-13T09:38:43.202Z,3.80
2018-06-13T09:41:11.782Z,4.60
2018-06-13T09:43:40.239Z,5.30
2018-06-13T09:46:12.013Z,4.37
2018-06-13T09:48:37.235Z,4.27
2018-06-13T09:51:05.715Z,4.50
2018-06-13T09:53:34.169Z,4.50
2018-06-13T09:56:02.659Z,4.37
2018-06-13T09:58:36.470Z,3.87
2018-06-13T10:01:07.308Z,4.20
2018-06-13T10:03:36.098Z,3.43
2018-06-13T10:06:04.593Z,4.23
2018-06-13T10:08:33.066Z,3.90
2018-06-13T10:11:01.532Z,3.30
2018-06-13T10:13:30.025Z,3.73
2018-06-13T10:15:59.149Z,2.50
2018-06-13T10:18:27.596Z,2.37
2018-06-13T10:20:56.041Z,1.50
2018-06-13T10:23:24.515Z,2.33
2018-06-13T10:25:53.049Z,1.70
2018-06-13T10:28:21.501Z,2.33
2018-06-13T10:30:50.048Z,2.07
2018-06-13T10:33:18.481Z,1.77
2018-06-13T10:35:47.027Z,2.20
2018-06-13T10:38:15.558Z,2.73
2018-06-13T10:40:44.015Z,1.83
2018-06-13T10:43:12.466Z,1.93
2018-06-13T10:45:40.998Z,2.30
2018-06-13T10:48:09.453Z,1.97
2018-06-13T10:50:37.910Z,1.67
2018-06-13T10:53:06.609Z,2.37
2018-06-13T10:55:35.167Z,1.80
2018-06-13T10:58:03.590Z,2.50
2018-06-13T11:00:32.051Z,1.60
2018-06-13T11:03:00.524Z,2.67
2018-06-13T11:05:28.972Z,1.53
2018-06-13T11:07:57.448Z,1.40
2018-06-13T11:10:25.896Z,2.60
2018-06-13T11:12:54.356Z,2.17
2018-06-13T11:15:22.828Z,1.90
2018-06-13T11:17:51.302Z,2.40
2018-06-13T11:20:19.883Z,1.67
2018-06-13T11:22:48.376Z,1.63
2018-06-13T11:25:16.885Z,0.90
2018-06-13T11:27:45.324Z,1.33
2018-06-13T11:30:13.941Z,2.23
2018-06-13T11:32:42.436Z,1.50
2018-06-13T11:35:10.902Z,1.90
2018-06-13T11:37:39.410Z,1.83
2018-06-13T11:40:07.875Z,2.83
2018-06-13T11:42:36.689Z,2.50
2018-06-13T11:45:05.803Z,2.17
2018-06-13T11:47:34.296Z,1.50
2018-06-13T11:50:02.769Z,2.50
2018-06-13T11:52:31.283Z,1.83
2018-06-13T11:54:59.725Z,2.53
2018-06-13T11:57:28.236Z,2.40
2018-06-13T11:59:56.774Z,2.10
2018-06-13T12:02:25.218Z,2.80
2018-06-13T12:04:53.689Z,2.40
2018-06-13T12:07:22.169Z,1.83
2018-06-13T12:09:50.762Z,1.80
2018-06-13T12:12:19.198Z,2.30
2018-06-13T12:14:47.672Z,2.33
2018-06-13T12:17:16.139Z,2.93
2018-06-13T12:19:44.594Z,2.73
2018-06-13T12:22:13.071Z,3.20
2018-06-13T12:24:41.524Z,2.30
2018-06-13T12:27:09.948Z,4.00
2018-06-13T12:29:38.416Z,2.87
2018-06-13T12:32:06.985Z,3.07
2018-06-13T12:34:35.472Z,2.73
2018-06-13T12:37:04.036Z,2.67
2018-06-13T12:39:32.504Z,3.37
2018-06-13T12:42:00.944Z,2.00
2018-06-13T12:44:29.409Z,3.20
2018-06-13T12:46:57.877Z,2.57
2018-06-13T12:49:26.308Z,2.27
2018-06-13T12:51:54.787Z,2.43
2018-06-13T12:54:23.222Z,2.67
2018-06-13T12:56:51.687Z,1.90
2018-06-13T12:59:20.159Z,1.33
2018-06-13T13:01:48.633Z,2.33
2018-06-13T13:04:17.136Z,1.93
2018-06-13T13:06:45.598Z,2.00
2018-06-13T13:09:14.493Z,2.00
2018-06-13T13:11:43.696Z,2.20
2018-06-13T13:14:12.279Z,1.67
2018-06-13T13:16:40.748Z,2.90
2018-06-13T13:19:09.204Z,2.80
2018-06-13T13:21:37.431Z,2.60
2018-06-13T13:24:05.861Z,3.30
2018-06-13T13:26:34.731Z,3.73
2018-06-13T13:29:03.691Z,3.30
2018-06-13T13:31:32.242Z,3.33
2018-06-13T13:34:00.732Z,3.83
2018-06-13T13:36:29.297Z,3.50
2018-06-13T13:38:57.496Z,3.43
2018-06-13T13:41:25.949Z,3.30
2018-06-13T13:43:54.433Z,3.10
2018-06-13T13:46:22.893Z,3.37
2018-06-13T13:48:51.371Z,3.17
2018-06-13T13:51:19.848Z,3.57
2018-06-13T13:53:48.299Z,4.27
2018-06-13T13:56:16.744Z,3.00
2018-06-13T13:58:44.978Z,3.00
2018-06-13T14:01:13.401Z,3.10
2018-06-13T14:03:41.877Z,3.23
2018-06-13T14:06:10.348Z,3.70
2018-06-13T14:08:38.809Z,2.27
2018-06-13T14:11:07.237Z,2.87
2018-06-13T14:13:35.695Z,2.17
2018-06-13T14:16:04.297Z,2.73
2018-06-13T14:18:32.910Z,2.23
2018-06-13T14:21:01.496Z,4.60
2018-06-13T14:23:29.989Z,2.40
2018-06-13T14:25:58.459Z,2.13
2018-06-13T14:28:26.961Z,3.53
2018-06-13T14:30:55.470Z,2.90
2018-06-13T14:33:23.916Z,1.90
2018-06-13T14:35:52.409Z,2.80
2018-06-13T14:38:20.918Z,1.90
2018-06-13T14:40:49.405Z,2.30
2018-06-13T14:43:17.883Z,2.43
2018-06-13T14:45:46.324Z,2.13
2018-06-13T14:48:14.887Z,1.70
2018-06-13T14:50:43.426Z,2.60
2018-06-13T14:53:11.842Z,2.07
2018-06-13T14:55:50.669Z,2.43
2018-06-13T14:58:19.145Z,1.97
2018-06-13T15:00:47.600Z,1.93
2018-06-13T15:03:16.086Z,1.63
2018-06-13T15:05:44.563Z,2.40
2018-06-13T15:08:13.022Z,2.63
2018-06-13T15:10:41.493Z,1.80
2018-06-13T15:13:10.002Z,1.90
2018-06-13T15:15:38.433Z,2.07
2018-06-13T15:18:07.013Z,2.53
2018-06-13T15:20:35.496Z,1.53
2018-06-13T15:23:03.953Z,2.00
2018-06-13T15:25:32.433Z,2.20
2018-06-13T15:28:00.956Z,1.40
2018-06-13T15:30:29.439Z,1.80
2018-06-13T15:32:57.964Z,1.50
2018-06-13T15:35:26.416Z,1.60
2018-06-13T15:37:54.890Z,1.30
2018-06-13T15:40:24.079Z,1.40
2018-06-13T15:42:52.552Z,1.50
2018-06-13T15:45:21.109Z,1.87
2018-06-13T15:47:49.697Z,1.50
2018-06-13T15:50:18.212Z,1.70
2018-06-13T15:52:46.737Z,1.10
2018-06-13T15:55:15.309Z,1.90
2018-06-13T15:57:43.776Z,2.10
2018-06-13T16:00:12.273Z,1.90
2018-06-13T16:02:40.768Z,2.80
2018-06-13T16:05:09.265Z,1.70
2018-06-13T16:07:37.767Z,1.40
2018-06-13T16:10:06.290Z,1.60
2018-06-13T16:12:34.823Z,1.40
2018-06-13T16:15:03.453Z,1.40
2018-06-13T16:17:31.979Z,2.43
2018-06-13T16:20:00.508Z,1.60
2018-06-13T16:22:29.008Z,2.17
2018-06-13T16:24:57.507Z,1.77
2018-06-13T16:27:25.975Z,2.30
2018-06-13T16:29:54.503Z,2.20
2018-06-13T16:32:23.009Z,1.80
2018-06-13T16:34:51.488Z,2.30
2018-06-13T16:37:19.961Z,1.40
2018-06-13T16:39:48.640Z,2.47
2018-06-13T16:42:17.147Z,2.60
2018-06-13T16:44:45.616Z,2.23
2018-06-13T16:47:14.073Z,3.30
2018-06-13T16:49:42.512Z,2.00
2018-06-13T16:52:22.363Z,2.27
2018-06-13T16:55:13.866Z,2.20
2018-06-13T16:57:42.351Z,2.10
2018-06-13T17:00:10.816Z,2.60
2018-06-13T17:02:39.272Z,2.30
2018-06-13T17:05:07.778Z,2.00
2018-06-13T17:07:36.241Z,3.60
2018-06-13T17:10:04.861Z,3.70
2018-06-13T17:12:33.654Z,3.70
2018-06-13T17:15:02.557Z,2.37
2018-06-13T17:17:31.104Z,2.63
2018-06-13T17:19:59.712Z,1.90
2018-06-13T17:22:28.165Z,2.70
2018-06-13T17:24:57.186Z,2.20
2018-06-13T17:27:25.723Z,2.60
2018-06-13T17:29:54.960Z,2.60
2018-06-13T17:32:23.948Z,2.20
2018-06-13T17:34:52.561Z,2.30
2018-06-13T17:37:21.116Z,1.93
2018-06-13T17:39:49.905Z,1.83
2018-06-13T17:42:18.400Z,3.03
2018-06-13T17:44:47.995Z,2.70
2018-06-13T17:47:16.470Z,3.83
2018-06-13T17:49:45.028Z,3.13
2018-06-13T17:52:13.489Z,2.50
2018-06-13T17:54:41.970Z,3.23
2018-06-13T17:57:10.475Z,2.13
2018-06-13T17:59:38.925Z,3.00
2018-06-13T18:02:07.389Z,2.70
2018-06-13T18:04:35.878Z,2.37
2018-06-13T18:07:04.437Z,2.00
2018-06-13T18:09:32.945Z,2.87
2018-06-13T18:12:01.428Z,2.23
2018-06-13T18:14:29.909Z,3.07
2018-06-13T18:16:58.484Z,2.43
2018-06-13T18:19:26.974Z,4.17
2018-06-13T18:21:55.477Z,2.93
2018-06-13T18:24:24.078Z,3.27
2018-06-13T18:26:52.570Z,5.53
2018-06-13T18:29:21.023Z,2.00
2018-06-13T18:31:49.508Z,2.60
2018-06-13T18:34:18.106Z,3.23
2018-06-13T18:36:46.498Z,3.03
2018-06-13T18:39:14.960Z,2.70
2018-06-13T18:41:43.811Z,3.10
2018-06-13T18:44:12.701Z,2.80
2018-06-13T18:46:41.257Z,0.30
2018-06-13T18:49:09.853Z,3.70
2018-06-13T18:51:38.341Z,2.60
2018-06-13T18:54:06.884Z,2.80
2018-06-13T18:56:35.192Z,2.70
2018-06-13T18:59:04.614Z,3.00
2018-06-13T19:01:33.292Z,2.40
2018-06-13T19:04:01.909Z,3.40
2018-06-13T19:06:30.475Z,3.10
2018-06-13T19:08:59.007Z,3.00
2018-06-13T19:11:27.367Z,2.80
2018-06-13T19:13:56.024Z,3.30
2018-06-13T19:16:24.498Z,3.10
2018-06-13T19:18:53.006Z,2.53
2018-06-13T19:21:21.471Z,3.67
2018-06-13T19:23:49.933Z,3.90
2018-06-13T19:26:18.444Z,3.63
2018-06-13T19:28:46.932Z,3.30
2018-06-13T19:31:15.392Z,4.80
2018-06-13T19:33:43.879Z,3.80
2018-06-13T19:36:12.417Z,3.40
2018-06-13T19:38:40.878Z,5.13
2018-06-13T19:41:09.382Z,6.03
2018-06-13T19:43:39.259Z,3.93
2018-06-13T19:46:08.337Z,5.00
2018-06-13T19:48:42.229Z,4.00
2018-06-13T19:51:10.820Z,3.40
2018-06-13T19:53:44.663Z,4.23
2018-06-13T19:56:14.437Z,4.10
2018-06-13T19:58:42.966Z,5.17
2018-06-13T20:01:11.453Z,5.90
2018-06-13T20:03:45.119Z,5.93
2018-06-13T20:06:13.631Z,5.50
2018-06-13T20:08:42.086Z,6.73
2018-06-13T20:11:10.589Z,5.83
2018-06-13T20:13:44.375Z,5.60
2018-06-13T20:16:18.361Z,6.65
2018-06-13T20:18:52.209Z,6.50
2018-06-13T20:21:20.704Z,6.87
2018-06-13T20:23:49.139Z,6.45
2018-06-13T20:26:22.884Z,8.83
2018-06-13T20:28:56.732Z,7.22
2018-06-13T20:31:27.589Z,8.88
2018-06-13T20:33:56.088Z,8.70
2018-06-13T20:36:24.613Z,9.08
2018-06-13T20:38:53.101Z,8.60
2018-06-13T20:41:21.589Z,9.33
2018-06-13T20:43:50.074Z,9.10
2018-06-13T20:46:18.582Z,10.25
2018-06-13T20:48:47.039Z,9.58
2018-06-13T20:51:15.545Z,11.97
2018-06-13T20:53:44.247Z,9.75
2018-06-13T20:56:12.732Z,10.28
2018-06-13T20:58:41.232Z,9.83
2018-06-13T21:01:09.687Z,9.48
2018-06-13T21:03:38.320Z,10.78
2018-06-13T21:06:06.815Z,9.93
2018-06-13T21:08:35.953Z,10.10
2018-06-13T21:11:04.409Z,11.25
2018-06-13T21:13:32.928Z,11.33
2018-06-13T21:16:01.508Z,9.68
2018-06-13T21:18:30.075Z,10.55
2018-06-13T21:20:58.541Z,10.13
2018-06-13T21:23:27.045Z,9.80
2018-06-13T21:25:55.527Z,13.45
2018-06-13T21:28:24.088Z,12.82
2018-06-13T21:30:52.556Z,14.47
2018-06-13T21:33:21.085Z,12.82
2018-06-13T21:35:49.556Z,14.40
2018-06-13T21:38:18.102Z,13.60
2018-06-13T21:40:46.824Z,13.48
2018-06-13T21:43:15.423Z,13.95
2018-06-13T21:45:44.032Z,12.65
2018-06-13T21:48:12.500Z,12.65
2018-06-13T21:50:40.971Z,12.28
2018-06-13T21:53:09.556Z,13.03
2018-06-13T21:55:38.005Z,13.55
2018-06-13T21:58:06.465Z,14.65
2018-06-13T22:00:34.972Z,17.07
2018-06-13T22:03:03.459Z,15.28
2018-06-13T22:05:31.907Z,15.88
2018-06-13T22:08:00.448Z,15.00
2018-06-13T22:10:28.881Z,15.10
2018-06-13T22:12:57.369Z,15.15
2018-06-13T22:15:26.733Z,13.05
2018-06-13T22:17:56.817Z,14.43
2018-06-13T22:20:25.496Z,14.28
2018-06-13T22:22:53.972Z,13.98
2018-06-13T22:25:22.406Z,16.37
2018-06-13T22:27:50.872Z,15.03
2018-06-13T22:30:19.335Z,15.15
2018-06-13T22:32:47.762Z,15.60
2018-06-13T22:35:16.208Z,14.40
2018-06-13T22:37:44.669Z,15.20
2018-06-13T22:40:13.115Z,17.95
2018-06-13T22:42:41.582Z,16.02
2018-06-13T22:45:10.083Z,16.12
2018-06-13T22:47:38.627Z,16.02
2018-06-13T22:50:07.101Z,15.48
2018-06-13T22:52:35.688Z,17.82
2018-06-13T22:55:04.193Z,17.80
2018-06-13T22:57:32.733Z,18.98
2018-06-13T23:00:01.226Z,16.45
2018-06-13T23:02:29.693Z,16.73
2018-06-13T23:04:58.241Z,15.72
2018-06-13T23:07:26.696Z,16.10
2018-06-13T23:09:55.135Z,15.30
2018-06-13T23:12:23.600Z,17.82
2018-06-13T23:14:52.075Z,19.40
2018-06-13T23:17:20.527Z,18.20
2018-06-13T23:19:49.133Z,19.73
2018-06-13T23:22:17.710Z,19.50
2018-06-13T23:24:46.189Z,21.05
2018-06-13T23:27:14.614Z,20.02
2018-06-13T23:29:43.067Z,19.02
2018-06-13T23:32:11.522Z,20.30
2018-06-13T23:34:39.995Z,17.70
2018-06-13T23:37:08.476Z,17.23
2018-06-13T23:39:36.945Z,17.62
2018-06-13T23:42:05.597Z,18.10
2018-06-13T23:44:34.047Z,19.70
2018-06-13T23:47:02.477Z,20.60
2018-06-13T23:49:30.913Z,19.12
2018-06-13T23:51:59.383Z,17.57
2018-06-13T23:54:27.838Z,16.35
2018-06-13T23:56:56.274Z,16.90
2018-06-13T23:59:24.792Z,17.10
